Flight Track Log - Related Links

Times and Time Zones

All times are in EDT time to prevent confusion due to time zone crossing. See the SWA2182 flight status page for this flight to view local times or setup timezone preferences in your user account.

Time Position Orientation Groundspeed Altitude Reporting Facility
EDT Latitude Longitude Course Direction KTS MPH feet Rate Location/Type
Fri 09:15:33 AM 38.7167 -121.6000 21° North 159 183 1,200  Level Northern Cal TRACON
Fri 09:16:27 AM 38.7500 -121.5833 21° North 213 245 3,200 2,792 Climbing Northern Cal TRACON
Fri 09:18:55 AM 38.6525 -121.4147 126° Southeast 280 322 10,600 2,900 Climbing Oakland Center
Fri 09:19:56 AM 38.5975 -121.3178 126° Southeast 337 388 13,300 3,025 Climbing Oakland Center
Fri 09:20:56 AM 38.5378 -121.2108 126° Southeast 362 417 16,700 3,223 Climbing Oakland Center
Fri 09:21:57 AM 38.4733 -121.1011 127° Southeast 378 435 19,800 3,025 Climbing Oakland Center
Fri 09:22:57 AM 38.4064 -120.9853 126° Southeast 396 456 22,800 2,628 Climbing Oakland Center
Fri 09:23:58 AM 38.3369 -120.8644 126° Southeast 415 478 25,100 2,380 Climbing Oakland Center
Fri 09:24:58 AM 38.2631 -120.7381 127° Southeast 435 501 27,600 2,231 Climbing Oakland Center
Fri 09:25:59 AM 38.1753 -120.6256 135° Southeast 445 512 29,600 2,066 Climbing Oakland Center
Fri 09:27:00 AM 38.0511 -120.5069 143° Southeast 461 531 31,800 2,231 Climbing Oakland Center
Fri 09:28:00 AM 37.9475 -120.4078 143° Southeast 465 535 34,100 1,884 Climbing Oakland Center
Fri 09:29:01 AM 37.8344 -120.3375 154° Southeast 454 522 35,600 1,525 Climbing Oakland Center
Fri 09:30:02 AM 37.7139 -120.2778 159° South 459 528 37,200 1,686 Climbing Oakland Center
Fri 09:31:02 AM 37.5958 -120.2167 158° South 460 529 39,000 893 Climbing Oakland Center
Fri 09:32:03 AM 37.4797 -120.1583 158° South 452 520 39,000  Level Oakland Center
Fri 09:33:04 AM 37.3592 -120.1017 160° South 462 532 39,000  Level Oakland Center
Fri 09:34:05 AM 37.2439 -120.0422 158° South 447 514 39,000  Level Oakland Center
Fri 09:35:05 AM 37.1275 -119.9844 158° South 447 514 39,000  Level Oakland Center
Fri 09:36:06 AM 37.0147 -119.9258 157° South 443 510 39,000  Level Oakland Center
Fri 09:37:07 AM 36.9003 -119.8683 158° South 443 510 39,000  Level Oakland Center
Fri 09:38:08 AM 36.7842 -119.8111 158° South 445 512 39,000  Level Oakland Center
Fri 09:39:09 AM 36.6681 -119.7486 157° South 462 532 39,000  Level Oakland Center
Fri 09:40:10 AM 36.5528 -119.6906 158° South 449 517 39,000  Level Oakland Center
Fri 09:41:10 AM 36.4353 -119.6319 158° South 452 520 39,000  Level Oakland Center
Fri 09:42:11 AM 36.3189 -119.5744 158° South 450 518 39,000  Level Oakland Center
Fri 09:43:12 AM 36.2022 -119.5172 158° South 451 519 39,000  Level Oakland Center
Fri 09:44:13 AM 36.0850 -119.4597 158° South 453 521 39,000  Level Oakland Center
Fri 09:45:14 AM 35.9478 -119.3925 158° South 444 511 39,000  Level Oakland Center
Fri 09:46:15 AM 35.8322 -119.3375 159° South 440 506 39,000  Level Oakland Center
Fri 09:47:16 AM 35.7128 -119.2786 158° South 453 521 39,000  Level Oakland Center
Fri 09:48:17 AM 35.5958 -119.2222 159° South 452 520 39,000  Level Oakland Center
Fri 09:49:19 AM 35.4814 -119.1661 158° South 445 512 39,000  Level Oakland Center
Fri 09:50:30 AM 35.3422 -119.0994 159° South 445 512 39,000  Level Los Angeles Center
Fri 09:51:31 AM 35.2253 -119.0436 159° South 447 514 39,000  Level Los Angeles Center
Fri 09:52:33 AM 35.1086 -118.9858 158° South 450 518 39,000  Level Los Angeles Center
Fri 09:53:35 AM 34.9914 -118.9308 159° South 450 518 39,000  Level Los Angeles Center
Fri 09:54:36 AM 34.8678 -118.8731 159° South 444 511 39,000  Level Los Angeles Center
Fri 09:55:38 AM 34.7539 -118.8186 159° South 442 509 39,000  Level Los Angeles Center
Fri 09:56:40 AM 34.6394 -118.7653 159° South 441 507 39,000  Level Los Angeles Center
Fri 09:57:41 AM 34.5261 -118.7106 158° South 439 505 39,000  Level Los Angeles Center
Fri 09:58:43 AM 34.4128 -118.6569 159° South 438 504 39,000  Level Los Angeles Center
Fri 09:59:46 AM 34.2761 -118.5886 158° South 443 510 39,000  Level Los Angeles Center
Fri 10:00:48 AM 34.1772 -118.4939 142° Southeast 451 519 39,000  Level Los Angeles Center
Fri 10:01:50 AM 34.0778 -118.4000 142° Southeast 452 520 39,000 -585 Level Los Angeles Center
Fri 10:02:51 AM 33.9778 -118.3056 142° Southeast 452 520 37,800 -2,293 Descending Los Angeles Center
Fri 10:03:53 AM 33.8739 -118.2072 142° Southeast 462 532 34,300 -2,952 Descending Los Angeles Center
Fri 10:04:55 AM 33.7675 -118.1089 142° Southeast 470 541 31,700 -2,683 Descending Los Angeles Center
Fri 10:05:56 AM 33.6650 -118.0136 142° Southeast 463 533 28,800 -1,805 Descending Los Angeles Center
Fri 10:06:58 AM 33.5614 -117.9169 142° Southeast 467 537 28,000 -1,907 Descending Los Angeles Center
Fri 10:08:05 AM 33.4333 -117.7833 139° Southeast 453 521 24,700 -2,903 Descending Southern California TRACON
Fri 10:09:02 AM 33.3494 -117.6892 137° Southeast 465 535 22,000 -2,847 Descending Los Angeles Center
Fri 10:10:03 AM 33.2661 -117.5839 133° Southeast 444 511 19,100 -3,073 Descending Los Angeles Center
Fri 10:11:05 AM 33.1778 -117.5025 142° Southeast 410 472 15,700 -3,000 Descending Los Angeles Center
Fri 10:12:05 AM 33.0833 -117.4333 148° Southeast 374 430 13,000 -2,296 Descending Southern California TRACON
Fri 10:13:00 AM 33.0000 -117.3667 146° Southeast 360 414 11,300 -1,488 Descending Southern California TRACON
Fri 10:14:06 AM 32.9167 -117.3000 146° Southeast 323 372 10,000 -1,238 Descending Southern California TRACON
Fri 10:15:06 AM 32.8500 -117.2500 148° Southeast 298 343 8,700 -1,368 Descending Southern California TRACON
Fri 10:16:00 AM 32.8167 -117.1833 121° Southeast 278 320 7,400 -1,368 Descending Southern California TRACON
Fri 10:17:00 AM 32.7833 -117.1167 121° Southeast 226 260 6,100 -1,500 Descending Southern California TRACON
Fri 10:18:00 AM 32.7667 -117.0500 107° East 189 217 4,400 -1,684 Descending Southern California TRACON
Fri 10:18:54 AM 32.7167 -117.0500 180° South 195 224 2,900 -1,421 Descending Southern California TRACON
Fri 10:19:54 AM 32.7167 -117.1000 270° West 163 188 1,700 -1,241 Descending Southern California TRACON
Fri 10:20:21 AM 32.7181 -117.1250 274° West 161 185 1,100 -944 Descending Los Angeles Center
Fri 10:21:23 AM 32.7281 -117.1672 286° West 145 167 300 -774 Descending Los Angeles Center

Login

Don't have an account? Register now (free) for customized features, flight alerts, and more!